createdAt,value
2022-09-18T00:01:30.382Z,20.95
2022-09-18T00:04:16.152Z,20.67
2022-09-18T00:07:05.338Z,20.75
2022-09-18T00:09:47.769Z,20.38
2022-09-18T00:12:36.438Z,21.95
2022-09-18T00:15:18.783Z,22.67
2022-09-18T00:18:07.383Z,20.65
2022-09-18T00:20:57.349Z,21.38
2022-09-18T00:23:47.353Z,21.30
2022-09-18T00:26:37.519Z,21.60
2022-09-18T00:29:19.871Z,21.30
2022-09-18T00:32:08.463Z,21.85
2022-09-18T00:34:50.650Z,21.05
2022-09-18T00:37:40.090Z,22.08
2022-09-18T00:40:22.686Z,20.42
2022-09-18T00:43:11.548Z,21.92
2022-09-18T00:46:02.564Z,20.45
2022-09-18T00:49:11.342Z,21.88
2022-09-18T00:51:56.784Z,21.63
2022-09-18T00:54:52.437Z,20.42
2022-09-18T00:57:43.390Z,21.10
2022-09-18T01:00:32.388Z,20.70
2022-09-18T01:03:14.612Z,21.10
2022-09-18T01:06:06.330Z,22.50
2022-09-18T01:09:09.779Z,21.02
2022-09-18T01:12:12.482Z,22.33
2022-09-18T01:15:14.196Z,22.20
2022-09-18T01:18:23.414Z,22.52
2022-09-18T01:21:26.402Z,21.55
2022-09-18T01:24:42.370Z,22.87
2022-09-18T01:28:00.443Z,22.45
2022-09-18T01:30:52.867Z,22.38
2022-09-18T01:33:53.398Z,22.05
2022-09-18T01:36:47.368Z,22.98
2022-09-18T01:40:02.512Z,23.48
2022-09-18T01:42:47.728Z,22.08
2022-09-18T01:45:43.334Z,23.15
2022-09-18T01:48:51.569Z,22.95
2022-09-18T01:54:48.349Z,21.58
2022-09-18T01:57:57.354Z,20.48
2022-09-18T02:00:47.443Z,20.35
2022-09-18T02:03:38.647Z,22.58
2022-09-18T02:06:41.403Z,21.50
2022-09-18T02:09:23.748Z,19.73
2022-09-18T02:15:17.344Z,20.33
2022-09-18T02:18:16.478Z,20.52
2022-09-18T02:21:13.298Z,19.65
2022-09-18T02:24:15.359Z,19.90
2022-09-18T02:27:01.713Z,19.25
2022-09-18T02:29:53.324Z,18.70
2022-09-18T02:32:35.749Z,19.55
2022-09-18T02:35:24.656Z,20.58
2022-09-18T02:38:23.352Z,19.52
2022-09-18T02:41:25.435Z,19.92
2022-09-18T02:44:20.359Z,20.58
2022-09-18T02:47:37.452Z,20.90
2022-09-18T02:51:05.502Z,20.80
2022-09-18T02:54:14.524Z,20.55
2022-09-18T02:56:56.747Z,21.58
2022-09-18T02:59:49.398Z,20.42
2022-09-18T03:02:33.806Z,20.70
2022-09-18T03:05:24.293Z,20.90
2022-09-18T03:08:15.435Z,21.20
2022-09-18T03:10:58.890Z,20.10
2022-09-18T03:13:47.280Z,20.00
2022-09-18T03:16:36.498Z,20.42
2022-09-18T03:19:26.823Z,21.30
2022-09-18T03:22:23.629Z,21.85
2022-09-18T03:25:06.179Z,21.17
2022-09-18T03:27:57.524Z,20.40
2022-09-18T03:30:46.829Z,20.95
2022-09-18T03:33:36.379Z,21.40
2022-09-18T03:36:26.801Z,20.20
2022-09-18T03:39:10.375Z,20.25
2022-09-18T03:42:01.410Z,19.75
2022-09-18T03:44:44.779Z,20.25
2022-09-18T03:47:41.434Z,21.10
2022-09-18T03:50:23.744Z,21.30
2022-09-18T03:53:12.377Z,18.58
2022-09-18T03:56:22.942Z,20.13
2022-09-18T03:59:44.477Z,20.48
2022-09-18T04:02:54.494Z,17.17
2022-09-18T04:05:41.219Z,19.98
2022-09-18T04:08:48.385Z,17.73
2022-09-18T04:11:36.782Z,19.48
2022-09-18T04:14:29.828Z,19.23
2022-09-18T04:17:12.800Z,18.20
2022-09-18T04:20:02.474Z,19.77
2022-09-18T04:22:57.385Z,18.35
2022-09-18T04:25:46.377Z,18.55
2022-09-18T04:28:40.461Z,19.67
2022-09-18T04:31:25.442Z,18.45
2022-09-18T04:34:19.498Z,19.17
2022-09-18T04:37:14.390Z,17.95
2022-09-18T04:40:00.968Z,18.95
2022-09-18T04:42:51.464Z,18.15
2022-09-18T04:45:43.482Z,18.35
2022-09-18T04:48:27.840Z,20.38
2022-09-18T04:51:18.461Z,20.77
2022-09-18T04:54:07.509Z,18.73
2022-09-18T04:56:49.615Z,20.15
2022-09-18T04:59:39.158Z,20.13
2022-09-18T05:02:21.952Z,21.15
2022-09-18T05:05:11.484Z,20.65
2022-09-18T05:07:53.635Z,20.65
2022-09-18T05:10:45.204Z,20.83
2022-09-18T05:13:29.005Z,20.67
2022-09-18T05:16:22.591Z,20.52
2022-09-18T05:19:35.267Z,22.20
2022-09-18T05:22:30.493Z,21.55
2022-09-18T05:25:37.183Z,20.83
2022-09-18T05:28:28.452Z,22.55
2022-09-18T05:31:12.841Z,20.45
2022-09-18T05:34:04.293Z,21.33
2022-09-18T05:36:49.834Z,21.88
2022-09-18T05:39:39.392Z,20.75
2022-09-18T05:42:21.827Z,21.85
2022-09-18T05:45:13.475Z,22.23
2022-09-18T05:48:07.851Z,22.63
2022-09-18T05:50:58.495Z,22.10
2022-09-18T05:53:43.665Z,24.13
2022-09-18T05:56:39.280Z,24.58
2022-09-18T05:59:29.400Z,22.75
2022-09-18T06:02:12.529Z,23.05
2022-09-18T06:05:19.493Z,22.27
2022-09-18T06:08:09.848Z,23.52
2022-09-18T06:10:52.382Z,24.30
2022-09-18T06:13:38.594Z,24.15
2022-09-18T06:16:31.436Z,24.25
2022-09-18T06:19:15.890Z,22.88
2022-09-18T06:22:05.210Z,24.00
2022-09-18T06:24:53.795Z,23.50
2022-09-18T06:27:43.293Z,25.30
2022-09-18T06:30:40.294Z,25.60
2022-09-18T06:33:26.864Z,24.02
2022-09-18T06:36:22.403Z,24.02
2022-09-18T06:39:25.717Z,24.75
2022-09-18T06:42:17.389Z,26.25
2022-09-18T06:45:37.114Z,25.75
2022-09-18T06:48:31.437Z,25.48
2022-09-18T06:51:16.835Z,27.48
2022-09-18T06:54:26.403Z,30.75
2022-09-18T06:57:16.505Z,31.23
2022-09-18T07:00:01.590Z,30.83
2022-09-18T07:02:54.465Z,29.67
2022-09-18T07:05:46.082Z,31.45
2022-09-18T07:08:59.401Z,30.42
2022-09-18T07:12:21.792Z,27.20
2022-09-18T07:15:05.396Z,26.25
2022-09-18T07:18:18.888Z,21.98
2022-09-18T07:24:03.546Z,23.92
2022-09-18T07:26:53.816Z,23.40
2022-09-18T07:29:56.399Z,22.85
2022-09-18T07:32:44.818Z,22.92
2022-09-18T07:35:33.387Z,22.38
2022-09-18T07:38:17.328Z,21.70
2022-09-18T07:41:14.409Z,22.25
2022-09-18T07:44:05.959Z,21.38
2022-09-18T07:46:50.777Z,22.20
2022-09-18T07:49:44.654Z,19.35
2022-09-18T07:52:34.377Z,19.73
2022-09-18T07:55:25.372Z,21.63
2022-09-18T07:58:17.488Z,21.63
2022-09-18T08:01:14.745Z,19.73
2022-09-18T08:04:08.409Z,20.02
2022-09-18T08:07:13.889Z,18.95
2022-09-18T08:10:26.119Z,20.55
2022-09-18T08:13:21.811Z,20.30
2022-09-18T08:16:32.790Z,20.23
2022-09-18T08:19:48.492Z,18.58
2022-09-18T08:23:04.840Z,19.48
2022-09-18T08:25:59.339Z,19.67
2022-09-18T08:28:41.755Z,21.57
2022-09-18T08:31:30.541Z,19.80
2022-09-18T08:34:16.974Z,19.73
2022-09-18T08:37:05.480Z,18.43
2022-09-18T08:40:16.860Z,21.02
2022-09-18T08:43:26.393Z,21.60
2022-09-18T08:46:23.010Z,21.73
2022-09-18T08:49:31.302Z,20.98
2022-09-18T08:52:24.012Z,21.58
2022-09-18T08:55:46.391Z,23.63
2022-09-18T08:58:59.769Z,23.27
2022-09-18T09:02:12.201Z,20.85
2022-09-18T09:04:57.565Z,22.15
2022-09-18T09:08:11.678Z,20.58
2022-09-18T09:11:02.403Z,21.42
2022-09-18T09:14:17.826Z,23.08
2022-09-18T09:17:16.944Z,21.70
2022-09-18T09:20:36.095Z,21.92
2022-09-18T09:23:53.386Z,21.58
2022-09-18T09:27:12.602Z,20.58
2022-09-18T09:30:33.277Z,19.67
2022-09-18T09:33:41.659Z,20.52
2022-09-18T09:36:44.388Z,21.70
2022-09-18T09:39:33.903Z,20.80
2022-09-18T09:42:30.491Z,21.63
2022-09-18T09:45:52.470Z,21.08
2022-09-18T09:48:58.827Z,17.98
2022-09-18T09:52:09.153Z,19.85
2022-09-18T09:55:09.603Z,19.73
2022-09-18T09:58:11.363Z,18.67
2022-09-18T10:01:23.344Z,17.33
2022-09-18T10:04:43.738Z,17.55
2022-09-18T10:08:08.399Z,17.40
2022-09-18T10:11:09.872Z,18.20
2022-09-18T10:14:21.391Z,17.35
2022-09-18T10:17:05.779Z,18.73
2022-09-18T10:19:56.293Z,19.98
2022-09-18T10:22:49.495Z,18.95
2022-09-18T10:25:53.862Z,18.77
2022-09-18T10:28:44.481Z,18.70
2022-09-18T10:31:52.216Z,20.20
2022-09-18T10:35:02.398Z,20.77
2022-09-18T10:37:44.714Z,19.83
2022-09-18T10:41:00.290Z,20.05
2022-09-18T10:44:03.547Z,20.75
2022-09-18T10:47:01.264Z,20.08
2022-09-18T10:50:14.385Z,21.52
2022-09-18T10:53:22.503Z,20.85
2022-09-18T10:56:29.383Z,20.67
2022-09-18T10:59:38.572Z,22.90
2022-09-18T11:02:34.314Z,22.65
2022-09-18T11:05:25.417Z,22.02
2022-09-18T11:08:22.300Z,23.40
2022-09-18T11:11:13.359Z,23.50
2022-09-18T11:14:19.519Z,23.70
2022-09-18T11:17:27.238Z,23.67
2022-09-18T11:20:21.283Z,24.25
2022-09-18T11:23:31.881Z,25.83
2022-09-18T11:26:45.529Z,24.45
2022-09-18T11:29:50.469Z,24.13
2022-09-18T11:32:43.463Z,25.85
2022-09-18T11:35:28.723Z,26.90
2022-09-18T11:38:21.173Z,25.70
2022-09-18T11:44:03.491Z,26.50
2022-09-18T11:47:34.475Z,27.38
2022-09-18T11:50:27.512Z,26.38
2022-09-18T11:53:34.482Z,26.90
2022-09-18T11:56:40.407Z,26.00
2022-09-18T11:59:37.326Z,27.50
2022-09-18T12:02:36.424Z,26.08
2022-09-18T12:05:44.812Z,26.65
2022-09-18T12:08:52.911Z,27.27
2022-09-18T12:12:22.528Z,27.75
2022-09-18T12:15:32.582Z,27.67
2022-09-18T12:18:33.126Z,28.13
2022-09-18T12:21:26.437Z,29.02
2022-09-18T12:24:15.387Z,27.63
2022-09-18T12:27:13.529Z,29.02
2022-09-18T12:30:28.111Z,28.00
2022-09-18T12:33:34.108Z,27.25
2022-09-18T12:36:41.031Z,26.77
2022-09-18T12:39:56.445Z,28.10
2022-09-18T12:43:18.220Z,28.00
2022-09-18T12:46:33.830Z,28.65
2022-09-18T12:49:20.780Z,26.73
2022-09-18T12:53:00.593Z,27.15
2022-09-18T12:56:41.674Z,26.33
2022-09-18T12:59:51.566Z,26.50
2022-09-18T13:03:11.310Z,26.50
2022-09-18T13:06:12.644Z,25.98
2022-09-18T13:09:26.080Z,26.40
2022-09-18T13:12:27.387Z,25.85
2022-09-18T13:15:42.155Z,26.83
2022-09-18T13:18:52.790Z,25.35
2022-09-18T13:22:01.555Z,26.55
2022-09-18T13:24:46.371Z,26.42
2022-09-18T13:27:37.901Z,27.48
2022-09-18T13:30:38.736Z,28.50
2022-09-18T13:33:35.449Z,25.42
2022-09-18T13:36:38.979Z,26.80
2022-09-18T13:39:46.070Z,28.02
2022-09-18T13:42:52.243Z,27.83
2022-09-18T13:45:52.337Z,27.80
2022-09-18T13:49:01.311Z,25.88
2022-09-18T13:51:48.848Z,27.02
2022-09-18T13:54:37.457Z,27.92
2022-09-18T13:57:35.467Z,27.42
2022-09-18T14:00:29.398Z,27.27
2022-09-18T14:03:28.477Z,27.25
2022-09-18T14:06:39.941Z,25.85
2022-09-18T14:10:09.337Z,25.83
2022-09-18T14:13:44.356Z,25.40
2022-09-18T14:16:30.218Z,26.13
2022-09-18T14:19:43.458Z,25.17
2022-09-18T14:22:39.324Z,26.80
2022-09-18T14:25:56.376Z,26.90
2022-09-18T14:29:04.047Z,26.55
2022-09-18T14:32:12.886Z,25.55
2022-09-18T14:35:41.226Z,25.83
2022-09-18T14:38:34.074Z,24.15
2022-09-18T14:41:29.510Z,25.15
2022-09-18T14:44:21.946Z,25.17
2022-09-18T14:47:17.395Z,23.95
2022-09-18T14:50:09.361Z,23.85
2022-09-18T14:52:59.483Z,23.70
2022-09-18T14:55:49.884Z,22.23
2022-09-18T14:58:50.072Z,23.20
2022-09-18T15:01:39.350Z,24.83
2022-09-18T15:04:34.565Z,26.88
2022-09-18T15:07:29.775Z,26.25
2022-09-18T15:10:18.276Z,26.52
2022-09-18T15:13:02.952Z,26.88
2022-09-18T15:16:04.068Z,27.38
2022-09-18T15:18:54.554Z,26.48
2022-09-18T15:21:44.273Z,27.63
2022-09-18T15:24:27.687Z,29.38
2022-09-18T15:27:22.379Z,27.80
2022-09-18T15:30:21.541Z,30.00
2022-09-18T15:33:21.083Z,29.15
2022-09-18T15:36:12.396Z,31.65
2022-09-18T15:38:57.803Z,27.15
2022-09-18T15:41:53.478Z,29.33
2022-09-18T15:44:50.417Z,28.80
2022-09-18T15:47:45.458Z,29.08
2022-09-18T15:50:31.184Z,29.85
2022-09-18T15:53:29.512Z,30.58
2022-09-18T15:56:18.501Z,29.35
2022-09-18T15:59:11.509Z,30.45
2022-09-18T16:01:58.326Z,28.98
2022-09-18T16:04:49.395Z,29.60
2022-09-18T16:07:34.937Z,29.75
2022-09-18T16:10:50.415Z,30.45
2022-09-18T16:13:40.498Z,30.38
2022-09-18T16:16:33.513Z,29.83
2022-09-18T16:19:30.310Z,30.70
2022-09-18T16:22:18.866Z,30.17
2022-09-18T16:25:10.221Z,29.88
2022-09-18T16:27:58.631Z,31.60
2022-09-18T16:30:47.851Z,30.40
2022-09-18T16:33:48.509Z,29.67
2022-09-18T16:36:47.447Z,30.00
2022-09-18T16:39:32.843Z,29.75
2022-09-18T16:42:26.352Z,29.25
2022-09-18T16:45:08.829Z,30.35
2022-09-18T16:48:00.829Z,29.73
2022-09-18T16:50:42.981Z,29.75
2022-09-18T16:53:34.819Z,30.15
2022-09-18T16:56:20.812Z,29.30
2022-09-18T16:59:11.372Z,29.60
2022-09-18T17:02:05.131Z,29.13
2022-09-18T17:04:56.202Z,28.58
2022-09-18T17:07:39.381Z,30.45
2022-09-18T17:10:21.894Z,30.58
2022-09-18T17:13:12.987Z,29.58
2022-09-18T17:16:03.711Z,31.65
2022-09-18T17:18:51.363Z,31.27
2022-09-18T17:21:40.138Z,29.75
2022-09-18T17:24:23.405Z,31.85
2022-09-18T17:29:57.823Z,30.45
2022-09-18T17:32:40.211Z,31.25
2022-09-18T17:35:32.494Z,32.10
2022-09-18T17:38:17.129Z,28.85
2022-09-18T17:41:16.925Z,29.95
2022-09-18T17:44:05.819Z,28.60
2022-09-18T17:46:52.930Z,29.77
2022-09-18T17:49:35.243Z,30.08
2022-09-18T17:52:24.439Z,30.65
2022-09-18T17:55:07.305Z,28.90
2022-09-18T17:58:00.365Z,28.10
2022-09-18T18:00:45.599Z,29.00
2022-09-18T18:03:34.432Z,28.77
2022-09-18T18:06:24.935Z,29.92
2022-09-18T18:09:07.368Z,27.15
2022-09-18T18:11:51.286Z,26.85
2022-09-18T18:14:40.394Z,27.25
2022-09-18T18:17:29.443Z,27.67
2022-09-18T18:20:12.926Z,25.30
2022-09-18T18:23:01.424Z,26.33
2022-09-18T18:25:43.909Z,25.60
2022-09-18T18:28:33.415Z,26.48
2022-09-18T18:31:20.894Z,26.17
2022-09-18T18:34:18.379Z,25.25
2022-09-18T18:37:07.087Z,25.63
2022-09-18T18:39:50.432Z,24.98
2022-09-18T18:42:39.886Z,25.75
2022-09-18T18:45:22.357Z,23.92
2022-09-18T18:48:07.288Z,26.20
2022-09-18T18:50:58.929Z,24.88
2022-09-18T18:53:49.315Z,25.10
2022-09-18T18:56:38.422Z,26.13
2022-09-18T18:59:30.343Z,25.10
2022-09-18T19:02:12.889Z,25.83
2022-09-18T19:04:55.093Z,24.25
2022-09-18T19:07:44.391Z,25.10
2022-09-18T19:10:27.206Z,25.20
2022-09-18T19:13:17.285Z,25.42
2022-09-18T19:16:01.495Z,24.77
2022-09-18T19:18:50.257Z,24.50
2022-09-18T19:21:33.888Z,24.63
2022-09-18T19:24:23.522Z,23.27
2022-09-18T19:27:05.751Z,22.67
2022-09-18T19:29:57.304Z,22.23
2022-09-18T19:32:48.036Z,21.60
2022-09-18T19:35:44.976Z,21.13
2022-09-18T19:38:33.305Z,20.75
2022-09-18T19:41:56.929Z,20.75
2022-09-18T19:44:54.387Z,21.33
2022-09-18T19:47:49.433Z,20.20
2022-09-18T19:50:35.070Z,19.77
2022-09-18T19:53:24.480Z,20.60
2022-09-18T19:56:27.537Z,19.83
2022-09-18T19:59:21.339Z,18.70
2022-09-18T20:02:12.333Z,19.38
2022-09-18T20:04:55.440Z,18.83
2022-09-18T20:07:41.831Z,19.20
2022-09-18T20:10:25.397Z,17.98
2022-09-18T20:13:08.043Z,17.88
2022-09-18T20:16:11.405Z,17.85
2022-09-18T20:18:55.762Z,19.45
2022-09-18T20:21:44.290Z,17.85
2022-09-18T20:24:27.781Z,17.65
2022-09-18T20:27:16.409Z,19.20
2022-09-18T20:30:05.266Z,18.33
2022-09-18T20:32:47.656Z,18.20
2022-09-18T20:35:36.266Z,18.10
2022-09-18T20:38:32.364Z,18.17
2022-09-18T20:41:23.264Z,19.15
2022-09-18T20:44:14.281Z,18.33
2022-09-18T20:47:02.770Z,18.15
2022-09-18T20:49:47.355Z,18.30
2022-09-18T20:52:36.268Z,18.23
2022-09-18T20:55:28.343Z,18.33
2022-09-18T20:58:10.815Z,18.70
2022-09-18T21:01:01.321Z,19.58
2022-09-18T21:03:52.709Z,19.13
2022-09-18T21:06:40.267Z,18.70
2022-09-18T21:09:23.031Z,20.00
2022-09-18T21:12:12.264Z,19.13
2022-09-18T21:15:03.286Z,19.85
2022-09-18T21:17:46.361Z,19.33
2022-09-18T21:20:35.273Z,19.92
2022-09-18T21:23:44.282Z,18.23
2022-09-18T21:26:34.440Z,18.33
2022-09-18T21:29:27.708Z,20.13
2022-09-18T21:32:16.288Z,19.48
2022-09-18T21:35:04.259Z,18.98
2022-09-18T21:37:53.376Z,19.00
2022-09-18T21:40:48.219Z,19.88
2022-09-18T21:43:50.622Z,18.75
2022-09-18T21:46:32.591Z,19.90
2022-09-18T21:49:23.289Z,19.17
2022-09-18T21:52:08.959Z,18.83
2022-09-18T21:54:57.278Z,19.60
2022-09-18T21:57:39.607Z,19.23
2022-09-18T22:00:28.310Z,19.90
2022-09-18T22:03:10.811Z,19.90
2022-09-18T22:06:00.358Z,18.80
2022-09-18T22:08:42.704Z,19.80
2022-09-18T22:11:36.285Z,19.77
2022-09-18T22:14:34.367Z,18.60
2022-09-18T22:17:17.526Z,19.30
2022-09-18T22:20:06.371Z,18.48
2022-09-18T22:22:48.679Z,18.92
2022-09-18T22:25:30.380Z,19.45
2022-09-18T22:28:12.670Z,19.52
2022-09-18T22:31:02.321Z,20.58
2022-09-18T22:33:46.310Z,22.30
2022-09-18T22:36:36.297Z,22.80
2022-09-18T22:39:19.969Z,22.30
2022-09-18T22:42:08.394Z,22.42
2022-09-18T22:44:57.378Z,22.85
2022-09-18T22:47:39.739Z,23.13
2022-09-18T22:50:30.443Z,23.92
2022-09-18T22:53:13.108Z,23.58
2022-09-18T22:56:08.374Z,23.45
2022-09-18T22:58:58.381Z,23.73
2022-09-18T23:01:47.320Z,23.90
2022-09-18T23:04:38.326Z,22.92
2022-09-18T23:07:20.652Z,22.90
2022-09-18T23:10:09.375Z,23.60
2022-09-18T23:12:58.335Z,23.20
2022-09-18T23:15:50.358Z,25.15
2022-09-18T23:18:39.257Z,24.42
2022-09-18T23:21:22.305Z,24.83
2022-09-18T23:24:13.381Z,24.13
2022-09-18T23:26:58.319Z,24.90
2022-09-18T23:29:48.290Z,23.67
2022-09-18T23:32:30.666Z,24.92
2022-09-18T23:35:19.394Z,25.98
2022-09-18T23:38:03.726Z,24.23
2022-09-18T23:40:52.310Z,25.98
2022-09-18T23:43:48.224Z,26.67
2022-09-18T23:46:38.366Z,26.60
2022-09-18T23:49:24.747Z,28.98
2022-09-18T23:52:13.285Z,26.38
2022-09-18T23:55:02.406Z,26.80
2022-09-18T23:57:44.593Z,26.20
